sensor_id;sensor_type;location;lat;lon;timestamp;P1;durP1;ratioP1;P2;durP2;ratioP2
65936;SDS011;52707;52.086;5.418;2022-11-24T00:02:02;29.45;;;5.07;;
65936;SDS011;52707;52.086;5.418;2022-11-24T00:04:29;28.75;;;4.75;;
65936;SDS011;52707;52.086;5.418;2022-11-24T00:06:55;31.27;;;5.28;;
65936;SDS011;52707;52.086;5.418;2022-11-24T00:09:21;25.63;;;5.72;;
65936;SDS011;52707;52.086;5.418;2022-11-24T00:11:48;28.38;;;4.57;;
65936;SDS011;52707;52.086;5.418;2022-11-24T00:14:14;29.20;;;4.68;;
65936;SDS011;52707;52.086;5.418;2022-11-24T00:16:41;28.55;;;5.40;;
65936;SDS011;52707;52.086;5.418;2022-11-24T00:19:08;30.25;;;5.05;;
65936;SDS011;52707;52.086;5.418;2022-11-24T00:21:35;26.42;;;4.68;;
65936;SDS011;52707;52.086;5.418;2022-11-24T00:24:01;27.25;;;4.28;;
65936;SDS011;52707;52.086;5.418;2022-11-24T00:26:29;16.25;;;3.67;;
65936;SDS011;52707;52.086;5.418;2022-11-24T00:28:56;23.55;;;3.80;;
65936;SDS011;52707;52.086;5.418;2022-11-24T00:31:24;22.25;;;4.18;;
65936;SDS011;52707;52.086;5.418;2022-11-24T00:33:51;20.10;;;4.00;;
65936;SDS011;52707;52.086;5.418;2022-11-24T00:36:18;32.70;;;4.80;;
65936;SDS011;52707;52.086;5.418;2022-11-24T00:38:45;34.42;;;5.18;;
65936;SDS011;52707;52.086;5.418;2022-11-24T00:41:11;35.65;;;5.05;;
65936;SDS011;52707;52.086;5.418;2022-11-24T00:43:38;29.13;;;4.90;;
65936;SDS011;52707;52.086;5.418;2022-11-24T00:46:04;26.65;;;3.67;;
65936;SDS011;52707;52.086;5.418;2022-11-24T00:48:30;30.77;;;5.45;;
65936;SDS011;52707;52.086;5.418;2022-11-24T00:50:58;23.27;;;5.22;;
65936;SDS011;52707;52.086;5.418;2022-11-24T00:53:24;32.50;;;5.50;;
65936;SDS011;52707;52.086;5.418;2022-11-24T00:55:51;22.63;;;5.03;;
65936;SDS011;52707;52.086;5.418;2022-11-24T00:58:17;30.95;;;4.97;;
65936;SDS011;52707;52.086;5.418;2022-11-24T01:00:44;30.70;;;5.82;;
65936;SDS011;52707;52.086;5.418;2022-11-24T01:03:11;33.97;;;5.32;;
65936;SDS011;52707;52.086;5.418;2022-11-24T01:05:37;26.50;;;5.53;;
65936;SDS011;52707;52.086;5.418;2022-11-24T01:08:04;30.85;;;4.35;;
65936;SDS011;52707;52.086;5.418;2022-11-24T01:10:31;30.42;;;4.22;;
65936;SDS011;52707;52.086;5.418;2022-11-24T01:12:57;27.63;;;4.53;;
65936;SDS011;52707;52.086;5.418;2022-11-24T01:15:24;31.83;;;4.63;;
65936;SDS011;52707;52.086;5.418;2022-11-24T01:17:51;24.77;;;3.88;;
65936;SDS011;52707;52.086;5.418;2022-11-24T01:20:17;21.65;;;4.47;;
65936;SDS011;52707;52.086;5.418;2022-11-24T01:22:46;25.95;;;4.38;;
65936;SDS011;52707;52.086;5.418;2022-11-24T01:25:12;35.90;;;5.18;;
65936;SDS011;52707;52.086;5.418;2022-11-24T01:27:38;33.97;;;4.78;;
65936;SDS011;52707;52.086;5.418;2022-11-24T01:30:05;28.27;;;5.32;;
65936;SDS011;52707;52.086;5.418;2022-11-24T01:32:32;24.17;;;4.22;;
65936;SDS011;52707;52.086;5.418;2022-11-24T01:34:59;25.80;;;4.80;;
65936;SDS011;52707;52.086;5.418;2022-11-24T01:37:25;43.00;;;5.75;;
65936;SDS011;52707;52.086;5.418;2022-11-24T01:39:51;33.55;;;3.88;;
65936;SDS011;52707;52.086;5.418;2022-11-24T01:42:18;29.05;;;4.28;;
65936;SDS011;52707;52.086;5.418;2022-11-24T01:44:44;16.52;;;2.90;;
65936;SDS011;52707;52.086;5.418;2022-11-24T01:52:07;18.60;;;4.00;;
65936;SDS011;52707;52.086;5.418;2022-11-24T01:54:36;25.83;;;3.97;;
65936;SDS011;52707;52.086;5.418;2022-11-24T01:57:09;34.70;;;5.75;;
65936;SDS011;52707;52.086;5.418;2022-11-24T01:59:36;25.38;;;4.88;;
65936;SDS011;52707;52.086;5.418;2022-11-24T02:02:02;20.00;;;2.97;;
65936;SDS011;52707;52.086;5.418;2022-11-24T02:04:30;16.30;;;3.55;;
65936;SDS011;52707;52.086;5.418;2022-11-24T02:06:58;24.73;;;3.78;;
65936;SDS011;52707;52.086;5.418;2022-11-24T02:09:28;20.33;;;3.30;;
65936;SDS011;52707;52.086;5.418;2022-11-24T02:11:57;25.30;;;4.75;;
65936;SDS011;52707;52.086;5.418;2022-11-24T02:14:24;21.60;;;3.95;;
65936;SDS011;52707;52.086;5.418;2022-11-24T02:16:51;19.63;;;3.35;;
65936;SDS011;52707;52.086;5.418;2022-11-24T02:19:24;20.67;;;3.50;;
65936;SDS011;52707;52.086;5.418;2022-11-24T02:21:53;25.27;;;4.78;;
65936;SDS011;52707;52.086;5.418;2022-11-24T02:24:54;21.15;;;3.25;;
65936;SDS011;52707;52.086;5.418;2022-11-24T02:27:12;21.25;;;2.85;;
65936;SDS011;52707;52.086;5.418;2022-11-24T02:29:38;17.88;;;3.53;;
65936;SDS011;52707;52.086;5.418;2022-11-24T02:32:05;19.65;;;3.35;;
65936;SDS011;52707;52.086;5.418;2022-11-24T02:34:32;19.80;;;3.33;;
65936;SDS011;52707;52.086;5.418;2022-11-24T02:36:59;19.13;;;2.80;;
65936;SDS011;52707;52.086;5.418;2022-11-24T02:39:25;19.75;;;2.67;;
65936;SDS011;52707;52.086;5.418;2022-11-24T02:41:52;22.83;;;4.03;;
65936;SDS011;52707;52.086;5.418;2022-11-24T02:44:20;25.70;;;3.42;;
65936;SDS011;52707;52.086;5.418;2022-11-24T02:46:47;24.10;;;3.63;;
65936;SDS011;52707;52.086;5.418;2022-11-24T02:49:13;22.58;;;4.72;;
65936;SDS011;52707;52.086;5.418;2022-11-24T02:51:40;20.98;;;3.55;;
65936;SDS011;52707;52.086;5.418;2022-11-24T02:54:06;26.52;;;4.13;;
65936;SDS011;52707;52.086;5.418;2022-11-24T02:56:33;17.23;;;3.33;;
65936;SDS011;52707;52.086;5.418;2022-11-24T02:58:59;20.50;;;3.42;;
65936;SDS011;52707;52.086;5.418;2022-11-24T03:01:25;16.20;;;3.53;;
65936;SDS011;52707;52.086;5.418;2022-11-24T03:03:52;18.02;;;3.00;;
65936;SDS011;52707;52.086;5.418;2022-11-24T03:06:18;19.75;;;3.28;;
65936;SDS011;52707;52.086;5.418;2022-11-24T03:08:44;40.35;;;5.22;;
65936;SDS011;52707;52.086;5.418;2022-11-24T03:11:11;18.25;;;3.88;;
65936;SDS011;52707;52.086;5.418;2022-11-24T03:13:37;19.45;;;3.67;;
65936;SDS011;52707;52.086;5.418;2022-11-24T03:16:06;25.45;;;3.90;;
65936;SDS011;52707;52.086;5.418;2022-11-24T03:18:32;19.50;;;4.05;;
65936;SDS011;52707;52.086;5.418;2022-11-24T03:20:59;22.23;;;2.85;;
65936;SDS011;52707;52.086;5.418;2022-11-24T03:23:25;23.88;;;4.20;;
65936;SDS011;52707;52.086;5.418;2022-11-24T03:25:51;19.77;;;3.65;;
65936;SDS011;52707;52.086;5.418;2022-11-24T03:28:18;19.52;;;3.83;;
65936;SDS011;52707;52.086;5.418;2022-11-24T03:30:46;23.60;;;4.28;;
65936;SDS011;52707;52.086;5.418;2022-11-24T03:33:13;21.13;;;4.20;;
65936;SDS011;52707;52.086;5.418;2022-11-24T03:35:39;23.30;;;3.80;;
65936;SDS011;52707;52.086;5.418;2022-11-24T03:38:05;22.17;;;4.05;;
65936;SDS011;52707;52.086;5.418;2022-11-24T03:40:32;22.92;;;3.75;;
65936;SDS011;52707;52.086;5.418;2022-11-24T03:42:58;25.35;;;4.10;;
65936;SDS011;52707;52.086;5.418;2022-11-24T03:45:24;17.88;;;3.70;;
65936;SDS011;52707;52.086;5.418;2022-11-24T03:48:10;22.13;;;3.85;;
65936;SDS011;52707;52.086;5.418;2022-11-24T03:50:37;19.05;;;3.50;;
65936;SDS011;52707;52.086;5.418;2022-11-24T03:53:03;19.98;;;3.13;;
65936;SDS011;52707;52.086;5.418;2022-11-24T03:55:29;24.98;;;3.47;;
65936;SDS011;52707;52.086;5.418;2022-11-24T03:57:56;19.27;;;3.88;;
65936;SDS011;52707;52.086;5.418;2022-11-24T04:00:22;28.30;;;4.22;;
65936;SDS011;52707;52.086;5.418;2022-11-24T04:02:48;26.38;;;4.15;;
65936;SDS011;52707;52.086;5.418;2022-11-24T04:05:15;15.75;;;3.25;;
65936;SDS011;52707;52.086;5.418;2022-11-24T04:07:41;20.50;;;4.18;;
65936;SDS011;52707;52.086;5.418;2022-11-24T04:10:07;23.48;;;3.70;;
65936;SDS011;52707;52.086;5.418;2022-11-24T04:12:34;29.60;;;3.75;;
65936;SDS011;52707;52.086;5.418;2022-11-24T04:15:10;17.48;;;3.50;;
65936;SDS011;52707;52.086;5.418;2022-11-24T04:17:36;20.08;;;3.45;;
65936;SDS011;52707;52.086;5.418;2022-11-24T04:20:03;28.45;;;3.80;;
65936;SDS011;52707;52.086;5.418;2022-11-24T04:22:30;20.95;;;3.35;;
65936;SDS011;52707;52.086;5.418;2022-11-24T04:24:56;33.83;;;4.47;;
65936;SDS011;52707;52.086;5.418;2022-11-24T04:27:22;24.63;;;3.70;;
65936;SDS011;52707;52.086;5.418;2022-11-24T04:29:49;24.13;;;3.85;;
65936;SDS011;52707;52.086;5.418;2022-11-24T04:32:16;18.52;;;3.20;;
65936;SDS011;52707;52.086;5.418;2022-11-24T04:34:42;20.40;;;3.25;;
65936;SDS011;52707;52.086;5.418;2022-11-24T04:37:08;23.15;;;4.25;;
65936;SDS011;52707;52.086;5.418;2022-11-24T04:39:35;24.77;;;3.70;;
65936;SDS011;52707;52.086;5.418;2022-11-24T04:42:01;24.45;;;3.65;;
65936;SDS011;52707;52.086;5.418;2022-11-24T04:44:27;20.40;;;3.42;;
65936;SDS011;52707;52.086;5.418;2022-11-24T04:46:53;28.45;;;4.03;;
65936;SDS011;52707;52.086;5.418;2022-11-24T04:49:20;24.70;;;4.20;;
65936;SDS011;52707;52.086;5.418;2022-11-24T04:51:46;24.02;;;3.75;;
65936;SDS011;52707;52.086;5.418;2022-11-24T04:54:12;17.60;;;3.65;;
65936;SDS011;52707;52.086;5.418;2022-11-24T04:56:39;15.82;;;3.10;;
65936;SDS011;52707;52.086;5.418;2022-11-24T04:59:06;27.83;;;4.72;;
65936;SDS011;52707;52.086;5.418;2022-11-24T05:01:34;21.33;;;3.63;;
65936;SDS011;52707;52.086;5.418;2022-11-24T05:04:00;17.20;;;3.20;;
65936;SDS011;52707;52.086;5.418;2022-11-24T05:06:26;16.27;;;3.20;;
65936;SDS011;52707;52.086;5.418;2022-11-24T05:08:53;19.90;;;3.53;;
65936;SDS011;52707;52.086;5.418;2022-11-24T05:11:19;16.83;;;3.40;;
65936;SDS011;52707;52.086;5.418;2022-11-24T05:13:45;18.02;;;3.33;;
65936;SDS011;52707;52.086;5.418;2022-11-24T05:16:11;15.65;;;3.58;;
65936;SDS011;52707;52.086;5.418;2022-11-24T05:18:38;12.32;;;2.85;;
65936;SDS011;52707;52.086;5.418;2022-11-24T05:21:04;16.30;;;3.28;;
65936;SDS011;52707;52.086;5.418;2022-11-24T05:23:31;20.30;;;3.22;;
65936;SDS011;52707;52.086;5.418;2022-11-24T05:26:00;17.30;;;3.10;;
65936;SDS011;52707;52.086;5.418;2022-11-24T05:28:26;18.17;;;3.72;;
65936;SDS011;52707;52.086;5.418;2022-11-24T05:30:53;8.10;;;2.63;;
65936;SDS011;52707;52.086;5.418;2022-11-24T05:33:19;12.32;;;2.75;;
65936;SDS011;52707;52.086;5.418;2022-11-24T05:35:48;15.30;;;3.00;;
65936;SDS011;52707;52.086;5.418;2022-11-24T05:38:15;7.22;;;2.30;;
65936;SDS011;52707;52.086;5.418;2022-11-24T05:40:42;11.23;;;2.65;;
65936;SDS011;52707;52.086;5.418;2022-11-24T05:43:12;9.07;;;2.30;;
65936;SDS011;52707;52.086;5.418;2022-11-24T05:45:38;11.40;;;2.78;;
65936;SDS011;52707;52.086;5.418;2022-11-24T05:48:05;9.65;;;2.05;;
65936;SDS011;52707;52.086;5.418;2022-11-24T05:50:32;8.40;;;2.28;;
65936;SDS011;52707;52.086;5.418;2022-11-24T05:53:06;8.02;;;2.08;;
65936;SDS011;52707;52.086;5.418;2022-11-24T05:55:32;10.15;;;1.92;;
65936;SDS011;52707;52.086;5.418;2022-11-24T05:58:00;8.30;;;1.88;;
65936;SDS011;52707;52.086;5.418;2022-11-24T06:00:27;6.72;;;1.73;;
65936;SDS011;52707;52.086;5.418;2022-11-24T06:02:54;9.73;;;2.45;;
65936;SDS011;52707;52.086;5.418;2022-11-24T06:05:21;7.10;;;2.25;;
65936;SDS011;52707;52.086;5.418;2022-11-24T06:07:48;6.55;;;1.77;;
65936;SDS011;52707;52.086;5.418;2022-11-24T06:10:15;7.90;;;2.22;;
65936;SDS011;52707;52.086;5.418;2022-11-24T06:12:41;5.38;;;1.92;;
65936;SDS011;52707;52.086;5.418;2022-11-24T06:15:08;6.30;;;1.35;;
65936;SDS011;52707;52.086;5.418;2022-11-24T06:17:34;7.15;;;1.50;;
65936;SDS011;52707;52.086;5.418;2022-11-24T06:20:01;6.05;;;1.80;;
65936;SDS011;52707;52.086;5.418;2022-11-24T06:22:27;11.95;;;1.90;;
65936;SDS011;52707;52.086;5.418;2022-11-24T06:24:53;3.88;;;1.98;;
65936;SDS011;52707;52.086;5.418;2022-11-24T06:27:19;5.70;;;2.15;;
65936;SDS011;52707;52.086;5.418;2022-11-24T06:29:46;6.85;;;2.60;;
65936;SDS011;52707;52.086;5.418;2022-11-24T06:32:12;3.95;;;1.77;;
65936;SDS011;52707;52.086;5.418;2022-11-24T06:34:39;4.95;;;2.05;;
65936;SDS011;52707;52.086;5.418;2022-11-24T06:37:05;7.68;;;2.05;;
65936;SDS011;52707;52.086;5.418;2022-11-24T06:39:31;6.03;;;2.90;;
65936;SDS011;52707;52.086;5.418;2022-11-24T06:41:57;10.27;;;3.05;;
65936;SDS011;52707;52.086;5.418;2022-11-24T06:44:24;9.23;;;2.80;;
65936;SDS011;52707;52.086;5.418;2022-11-24T06:46:50;8.18;;;3.17;;
65936;SDS011;52707;52.086;5.418;2022-11-24T06:49:17;10.55;;;3.42;;
65936;SDS011;52707;52.086;5.418;2022-11-24T06:51:43;9.35;;;3.88;;
65936;SDS011;52707;52.086;5.418;2022-11-24T06:54:11;7.22;;;3.83;;
65936;SDS011;52707;52.086;5.418;2022-11-24T06:56:38;11.05;;;4.50;;
65936;SDS011;52707;52.086;5.418;2022-11-24T06:59:05;11.60;;;4.80;;
65936;SDS011;52707;52.086;5.418;2022-11-24T07:01:31;9.13;;;4.10;;
65936;SDS011;52707;52.086;5.418;2022-11-24T07:03:57;8.55;;;3.90;;
65936;SDS011;52707;52.086;5.418;2022-11-24T07:06:24;8.63;;;4.28;;
65936;SDS011;52707;52.086;5.418;2022-11-24T07:08:51;9.43;;;4.35;;
65936;SDS011;52707;52.086;5.418;2022-11-24T07:11:19;11.55;;;5.35;;
65936;SDS011;52707;52.086;5.418;2022-11-24T07:13:45;7.82;;;4.90;;
65936;SDS011;52707;52.086;5.418;2022-11-24T07:16:12;11.18;;;5.35;;
65936;SDS011;52707;52.086;5.418;2022-11-24T07:18:39;8.70;;;5.10;;
65936;SDS011;52707;52.086;5.418;2022-11-24T07:21:05;8.85;;;5.20;;
65936;SDS011;52707;52.086;5.418;2022-11-24T07:23:32;10.25;;;5.28;;
65936;SDS011;52707;52.086;5.418;2022-11-24T07:26:00;14.32;;;5.85;;
65936;SDS011;52707;52.086;5.418;2022-11-24T07:28:32;11.00;;;5.60;;
65936;SDS011;52707;52.086;5.418;2022-11-24T07:30:58;12.65;;;6.25;;
65936;SDS011;52707;52.086;5.418;2022-11-24T07:33:29;9.43;;;5.93;;
65936;SDS011;52707;52.086;5.418;2022-11-24T07:35:58;13.27;;;6.18;;
65936;SDS011;52707;52.086;5.418;2022-11-24T07:38:24;11.95;;;6.53;;
65936;SDS011;52707;52.086;5.418;2022-11-24T07:40:50;10.52;;;6.10;;
65936;SDS011;52707;52.086;5.418;2022-11-24T07:43:16;18.13;;;6.82;;
65936;SDS011;52707;52.086;5.418;2022-11-24T07:45:50;11.60;;;5.93;;
65936;SDS011;52707;52.086;5.418;2022-11-24T07:48:16;9.15;;;6.05;;
65936;SDS011;52707;52.086;5.418;2022-11-24T07:50:43;14.35;;;6.45;;
65936;SDS011;52707;52.086;5.418;2022-11-24T07:53:09;11.30;;;6.28;;
65936;SDS011;52707;52.086;5.418;2022-11-24T07:55:35;13.23;;;6.65;;
65936;SDS011;52707;52.086;5.418;2022-11-24T07:58:02;11.57;;;6.07;;
65936;SDS011;52707;52.086;5.418;2022-11-24T08:00:28;14.40;;;6.20;;
65936;SDS011;52707;52.086;5.418;2022-11-24T08:02:54;17.05;;;7.22;;
65936;SDS011;52707;52.086;5.418;2022-11-24T08:05:21;12.73;;;6.93;;
65936;SDS011;52707;52.086;5.418;2022-11-24T08:07:47;13.40;;;6.97;;
65936;SDS011;52707;52.086;5.418;2022-11-24T08:10:13;16.73;;;7.43;;
65936;SDS011;52707;52.086;5.418;2022-11-24T08:12:40;15.18;;;7.45;;
65936;SDS011;52707;52.086;5.418;2022-11-24T08:15:09;11.43;;;7.00;;
65936;SDS011;52707;52.086;5.418;2022-11-24T08:17:36;14.65;;;6.22;;
65936;SDS011;52707;52.086;5.418;2022-11-24T08:20:03;18.40;;;7.25;;
65936;SDS011;52707;52.086;5.418;2022-11-24T08:22:29;12.85;;;6.53;;
65936;SDS011;52707;52.086;5.418;2022-11-24T08:24:55;13.07;;;7.13;;
65936;SDS011;52707;52.086;5.418;2022-11-24T08:27:21;10.63;;;6.20;;
65936;SDS011;52707;52.086;5.418;2022-11-24T08:29:48;10.52;;;6.55;;
65936;SDS011;52707;52.086;5.418;2022-11-24T08:32:14;14.23;;;6.57;;
65936;SDS011;52707;52.086;5.418;2022-11-24T08:34:47;15.07;;;5.90;;
65936;SDS011;52707;52.086;5.418;2022-11-24T08:37:13;18.25;;;6.65;;
65936;SDS011;52707;52.086;5.418;2022-11-24T08:39:40;15.77;;;6.85;;
65936;SDS011;52707;52.086;5.418;2022-11-24T08:42:06;18.50;;;6.68;;
65936;SDS011;52707;52.086;5.418;2022-11-24T08:44:32;11.52;;;5.30;;
65936;SDS011;52707;52.086;5.418;2022-11-24T08:46:59;17.65;;;6.82;;
65936;SDS011;52707;52.086;5.418;2022-11-24T08:49:25;15.52;;;6.07;;
65936;SDS011;52707;52.086;5.418;2022-11-24T08:51:52;10.00;;;5.18;;
65936;SDS011;52707;52.086;5.418;2022-11-24T08:54:18;16.35;;;5.75;;
65936;SDS011;52707;52.086;5.418;2022-11-24T08:56:45;12.82;;;4.90;;
65936;SDS011;52707;52.086;5.418;2022-11-24T08:59:13;10.80;;;5.28;;
65936;SDS011;52707;52.086;5.418;2022-11-24T09:01:40;12.32;;;5.05;;
65936;SDS011;52707;52.086;5.418;2022-11-24T09:04:07;18.27;;;5.82;;
65936;SDS011;52707;52.086;5.418;2022-11-24T09:06:33;12.75;;;4.20;;
65936;SDS011;52707;52.086;5.418;2022-11-24T09:09:00;13.35;;;5.32;;
65936;SDS011;52707;52.086;5.418;2022-11-24T09:11:26;14.65;;;4.65;;
65936;SDS011;52707;52.086;5.418;2022-11-24T09:13:53;15.15;;;4.15;;
65936;SDS011;52707;52.086;5.418;2022-11-24T09:16:21;13.77;;;4.20;;
65936;SDS011;52707;52.086;5.418;2022-11-24T09:18:53;17.10;;;5.15;;
65936;SDS011;52707;52.086;5.418;2022-11-24T09:21:20;13.50;;;3.90;;
65936;SDS011;52707;52.086;5.418;2022-11-24T09:23:46;11.88;;;3.97;;
65936;SDS011;52707;52.086;5.418;2022-11-24T09:26:18;9.32;;;4.28;;
65936;SDS011;52707;52.086;5.418;2022-11-24T09:28:44;16.40;;;4.55;;
65936;SDS011;52707;52.086;5.418;2022-11-24T09:31:12;21.88;;;4.75;;
65936;SDS011;52707;52.086;5.418;2022-11-24T09:33:38;12.48;;;3.53;;
65936;SDS011;52707;52.086;5.418;2022-11-24T09:36:06;12.70;;;3.50;;
65936;SDS011;52707;52.086;5.418;2022-11-24T09:38:32;14.55;;;3.97;;
65936;SDS011;52707;52.086;5.418;2022-11-24T09:49:45;21.55;;;4.20;;
65936;SDS011;52707;52.086;5.418;2022-11-24T09:52:18;14.38;;;3.05;;
65936;SDS011;52707;52.086;5.418;2022-11-24T09:54:50;12.15;;;3.13;;
65936;SDS011;52707;52.086;5.418;2022-11-24T09:57:18;16.45;;;4.15;;
65936;SDS011;52707;52.086;5.418;2022-11-24T09:59:46;14.20;;;3.22;;
65936;SDS011;52707;52.086;5.418;2022-11-24T10:02:13;13.02;;;2.85;;
65936;SDS011;52707;52.086;5.418;2022-11-24T10:04:42;15.95;;;3.45;;
65936;SDS011;52707;52.086;5.418;2022-11-24T10:07:18;13.48;;;3.30;;
65936;SDS011;52707;52.086;5.418;2022-11-24T10:12:25;18.00;;;4.43;;
65936;SDS011;52707;52.086;5.418;2022-11-24T10:14:56;12.70;;;2.95;;
65936;SDS011;52707;52.086;5.418;2022-11-24T10:22:33;13.05;;;3.28;;
65936;SDS011;52707;52.086;5.418;2022-11-24T10:27:36;17.80;;;2.92;;
65936;SDS011;52707;52.086;5.418;2022-11-24T10:30:11;12.15;;;3.65;;
65936;SDS011;52707;52.086;5.418;2022-11-24T10:32:39;16.77;;;2.90;;
65936;SDS011;52707;52.086;5.418;2022-11-24T10:35:16;10.18;;;2.85;;
65936;SDS011;52707;52.086;5.418;2022-11-24T10:40:44;10.50;;;3.20;;
65936;SDS011;52707;52.086;5.418;2022-11-24T10:43:27;9.77;;;2.60;;
65936;SDS011;52707;52.086;5.418;2022-11-24T10:45:58;16.83;;;4.28;;
65936;SDS011;52707;52.086;5.418;2022-11-24T10:48:26;14.15;;;2.75;;
65936;SDS011;52707;52.086;5.418;2022-11-24T10:51:00;18.38;;;3.72;;
65936;SDS011;52707;52.086;5.418;2022-11-24T10:53:31;13.02;;;3.38;;
65936;SDS011;52707;52.086;5.418;2022-11-24T10:56:00;15.15;;;3.42;;
65936;SDS011;52707;52.086;5.418;2022-11-24T10:58:36;15.57;;;3.42;;
65936;SDS011;52707;52.086;5.418;2022-11-24T11:03:49;11.05;;;3.05;;
65936;SDS011;52707;52.086;5.418;2022-11-24T11:06:20;15.40;;;3.70;;
65936;SDS011;52707;52.086;5.418;2022-11-24T11:08:47;15.98;;;3.70;;
65936;SDS011;52707;52.086;5.418;2022-11-24T11:11:17;14.18;;;3.58;;
65936;SDS011;52707;52.086;5.418;2022-11-24T11:13:49;16.85;;;4.05;;
65936;SDS011;52707;52.086;5.418;2022-11-24T11:17:00;23.00;;;3.85;;
65936;SDS011;52707;52.086;5.418;2022-11-24T11:22:23;15.65;;;4.10;;
65936;SDS011;52707;52.086;5.418;2022-11-24T11:27:29;19.83;;;4.20;;
65936;SDS011;52707;52.086;5.418;2022-11-24T11:30:08;23.20;;;4.78;;
65936;SDS011;52707;52.086;5.418;2022-11-24T11:33:01;13.05;;;3.50;;
65936;SDS011;52707;52.086;5.418;2022-11-24T11:35:48;20.30;;;4.75;;
65936;SDS011;52707;52.086;5.418;2022-11-24T11:38:14;23.40;;;4.55;;
65936;SDS011;52707;52.086;5.418;2022-11-24T11:40:41;18.40;;;4.78;;
65936;SDS011;52707;52.086;5.418;2022-11-24T11:43:11;19.75;;;4.47;;
65936;SDS011;52707;52.086;5.418;2022-11-24T11:45:42;13.65;;;4.05;;
65936;SDS011;52707;52.086;5.418;2022-11-24T11:48:22;16.33;;;3.93;;
65936;SDS011;52707;52.086;5.418;2022-11-24T11:50:51;18.33;;;3.97;;
65936;SDS011;52707;52.086;5.418;2022-11-24T12:04:08;14.85;;;4.88;;
65936;SDS011;52707;52.086;5.418;2022-11-24T12:14:54;17.80;;;4.47;;
65936;SDS011;52707;52.086;5.418;2022-11-24T12:22:32;17.60;;;4.47;;
65936;SDS011;52707;52.086;5.418;2022-11-24T12:25:10;17.42;;;4.18;;
65936;SDS011;52707;52.086;5.418;2022-11-24T12:30:30;19.25;;;4.63;;
65936;SDS011;52707;52.086;5.418;2022-11-24T12:38:14;22.13;;;4.68;;
65936;SDS011;52707;52.086;5.418;2022-11-24T12:41:03;23.77;;;4.38;;
65936;SDS011;52707;52.086;5.418;2022-11-24T12:43:57;16.85;;;4.43;;
65936;SDS011;52707;52.086;5.418;2022-11-24T12:51:37;21.05;;;4.40;;
65936;SDS011;52707;52.086;5.418;2022-11-24T12:54:07;14.88;;;4.05;;
65936;SDS011;52707;52.086;5.418;2022-11-24T12:56:36;20.73;;;4.85;;
65936;SDS011;52707;52.086;5.418;2022-11-24T13:01:46;18.10;;;4.65;;
65936;SDS011;52707;52.086;5.418;2022-11-24T13:04:28;23.88;;;5.25;;
65936;SDS011;52707;52.086;5.418;2022-11-24T13:07:09;16.17;;;4.43;;
65936;SDS011;52707;52.086;5.418;2022-11-24T13:09:36;20.50;;;4.20;;
65936;SDS011;52707;52.086;5.418;2022-11-24T13:12:12;24.25;;;4.95;;
65936;SDS011;52707;52.086;5.418;2022-11-24T13:14:42;23.58;;;4.93;;
65936;SDS011;52707;52.086;5.418;2022-11-24T13:20:22;23.33;;;4.63;;
65936;SDS011;52707;52.086;5.418;2022-11-24T13:25:19;18.40;;;5.07;;
65936;SDS011;52707;52.086;5.418;2022-11-24T13:33:01;28.65;;;6.28;;
65936;SDS011;52707;52.086;5.418;2022-11-24T13:38:51;24.20;;;5.13;;
65936;SDS011;52707;52.086;5.418;2022-11-24T13:51:57;26.77;;;8.00;;
65936;SDS011;52707;52.086;5.418;2022-11-24T13:54:43;34.30;;;8.75;;
65936;SDS011;52707;52.086;5.418;2022-11-24T13:57:52;31.52;;;6.75;;
65936;SDS011;52707;52.086;5.418;2022-11-24T14:00:00;29.60;;;6.60;;
65936;SDS011;52707;52.086;5.418;2022-11-24T14:02:26;26.25;;;7.00;;
65936;SDS011;52707;52.086;5.418;2022-11-24T14:04:54;26.85;;;7.45;;
65936;SDS011;52707;52.086;5.418;2022-11-24T14:07:20;23.63;;;5.95;;
65936;SDS011;52707;52.086;5.418;2022-11-24T14:09:50;24.73;;;5.90;;
65936;SDS011;52707;52.086;5.418;2022-11-24T14:12:20;23.65;;;5.65;;
65936;SDS011;52707;52.086;5.418;2022-11-24T14:14:48;24.05;;;5.50;;
65936;SDS011;52707;52.086;5.418;2022-11-24T14:17:15;20.58;;;4.90;;
65936;SDS011;52707;52.086;5.418;2022-11-24T14:19:43;22.55;;;4.32;;
65936;SDS011;52707;52.086;5.418;2022-11-24T14:22:53;27.20;;;4.50;;
65936;SDS011;52707;52.086;5.418;2022-11-24T14:25:00;23.20;;;4.97;;
65936;SDS011;52707;52.086;5.418;2022-11-24T14:27:28;22.48;;;4.13;;
65936;SDS011;52707;52.086;5.418;2022-11-24T14:29:56;23.35;;;5.70;;
65936;SDS011;52707;52.086;5.418;2022-11-24T14:32:24;33.30;;;7.07;;
65936;SDS011;52707;52.086;5.418;2022-11-24T14:34:50;39.00;;;8.70;;
65936;SDS011;52707;52.086;5.418;2022-11-24T14:37:19;23.90;;;8.70;;
65936;SDS011;52707;52.086;5.418;2022-11-24T14:39:45;25.27;;;5.35;;
65936;SDS011;52707;52.086;5.418;2022-11-24T14:44:45;22.65;;;5.57;;
65936;SDS011;52707;52.086;5.418;2022-11-24T14:47:18;20.75;;;5.00;;
65936;SDS011;52707;52.086;5.418;2022-11-24T14:49:45;16.67;;;4.07;;
65936;SDS011;52707;52.086;5.418;2022-11-24T14:52:12;16.55;;;4.38;;
65936;SDS011;52707;52.086;5.418;2022-11-24T14:54:46;25.60;;;6.47;;
65936;SDS011;52707;52.086;5.418;2022-11-24T14:57:24;22.08;;;4.90;;
65936;SDS011;52707;52.086;5.418;2022-11-24T15:02:39;30.17;;;5.55;;
65936;SDS011;52707;52.086;5.418;2022-11-24T15:07:33;29.65;;;7.53;;
65936;SDS011;52707;52.086;5.418;2022-11-24T15:10:02;24.40;;;7.32;;
65936;SDS011;52707;52.086;5.418;2022-11-24T15:17:31;21.88;;;4.82;;
65936;SDS011;52707;52.086;5.418;2022-11-24T15:19:59;30.05;;;5.80;;
65936;SDS011;52707;52.086;5.418;2022-11-24T15:22:33;22.05;;;5.85;;
65936;SDS011;52707;52.086;5.418;2022-11-24T15:25:00;24.08;;;6.20;;
65936;SDS011;52707;52.086;5.418;2022-11-24T15:27:27;27.55;;;6.57;;
65936;SDS011;52707;52.086;5.418;2022-11-24T15:29:53;25.27;;;5.93;;
65936;SDS011;52707;52.086;5.418;2022-11-24T15:32:19;27.42;;;6.63;;
65936;SDS011;52707;52.086;5.418;2022-11-24T15:34:45;23.50;;;5.35;;
65936;SDS011;52707;52.086;5.418;2022-11-24T15:37:12;25.92;;;5.40;;
65936;SDS011;52707;52.086;5.418;2022-11-24T15:39:38;20.58;;;4.45;;
65936;SDS011;52707;52.086;5.418;2022-11-24T15:42:04;18.60;;;4.95;;
65936;SDS011;52707;52.086;5.418;2022-11-24T15:44:31;28.77;;;5.57;;
65936;SDS011;52707;52.086;5.418;2022-11-24T15:46:58;23.08;;;5.53;;
65936;SDS011;52707;52.086;5.418;2022-11-24T15:49:24;24.15;;;5.43;;
65936;SDS011;52707;52.086;5.418;2022-11-24T15:51:51;24.13;;;4.07;;
65936;SDS011;52707;52.086;5.418;2022-11-24T15:54:17;27.33;;;5.13;;
65936;SDS011;52707;52.086;5.418;2022-11-24T15:56:43;25.52;;;4.15;;
65936;SDS011;52707;52.086;5.418;2022-11-24T15:59:12;26.67;;;5.53;;
65936;SDS011;52707;52.086;5.418;2022-11-24T16:01:46;29.30;;;6.28;;
65936;SDS011;52707;52.086;5.418;2022-11-24T16:04:14;24.17;;;5.72;;
65936;SDS011;52707;52.086;5.418;2022-11-24T16:06:41;26.83;;;6.68;;
65936;SDS011;52707;52.086;5.418;2022-11-24T16:09:10;29.48;;;7.70;;
65936;SDS011;52707;52.086;5.418;2022-11-24T16:11:37;39.25;;;7.60;;
65936;SDS011;52707;52.086;5.418;2022-11-24T16:14:03;22.42;;;5.20;;
65936;SDS011;52707;52.086;5.418;2022-11-24T16:16:30;27.98;;;8.52;;
65936;SDS011;52707;52.086;5.418;2022-11-24T16:18:56;31.40;;;9.15;;
65936;SDS011;52707;52.086;5.418;2022-11-24T16:21:22;34.47;;;8.70;;
65936;SDS011;52707;52.086;5.418;2022-11-24T16:23:48;32.17;;;8.45;;
65936;SDS011;52707;52.086;5.418;2022-11-24T16:26:15;20.40;;;5.55;;
65936;SDS011;52707;52.086;5.418;2022-11-24T16:28:41;21.45;;;5.47;;
65936;SDS011;52707;52.086;5.418;2022-11-24T16:31:07;29.20;;;5.07;;
65936;SDS011;52707;52.086;5.418;2022-11-24T16:33:34;26.92;;;5.43;;
65936;SDS011;52707;52.086;5.418;2022-11-24T16:36:03;24.67;;;5.10;;